sensor_id;sensor_type;location;lat;lon;timestamp;temperature;humidity
4406;DHT22;2216;53.806;11.598;2023-10-13T00:01:59;10.10;79.10
4406;DHT22;2216;53.806;11.598;2023-10-13T00:04:30;10.10;79.10
4406;DHT22;2216;53.806;11.598;2023-10-13T00:07:01;10.10;79.10
4406;DHT22;2216;53.806;11.598;2023-10-13T00:09:28;10.20;79.10
4406;DHT22;2216;53.806;11.598;2023-10-13T00:12:07;10.20;79.10
4406;DHT22;2216;53.806;11.598;2023-10-13T00:14:39;10.20;79.00
4406;DHT22;2216;53.806;11.598;2023-10-13T00:17:07;10.30;79.00
4406;DHT22;2216;53.806;11.598;2023-10-13T00:19:35;10.30;79.10
4406;DHT22;2216;53.806;11.598;2023-10-13T00:22:12;10.30;79.00
4406;DHT22;2216;53.806;11.598;2023-10-13T00:24:42;10.30;79.00
4406;DHT22;2216;53.806;11.598;2023-10-13T00:27:17;10.40;79.00
4406;DHT22;2216;53.806;11.598;2023-10-13T00:32:52;10.50;79.00
4406;DHT22;2216;53.806;11.598;2023-10-13T00:35:28;10.50;79.00
4406;DHT22;2216;53.806;11.598;2023-10-13T00:38:02;10.50;79.00
4406;DHT22;2216;53.806;11.598;2023-10-13T00:40:43;10.50;79.00
4406;DHT22;2216;53.806;11.598;2023-10-13T00:43:20;10.60;79.00
4406;DHT22;2216;53.806;11.598;2023-10-13T00:46:05;10.60;79.00
4406;DHT22;2216;53.806;11.598;2023-10-13T00:48:37;10.60;79.00
4406;DHT22;2216;53.806;11.598;2023-10-13T00:51:20;10.60;78.90
4406;DHT22;2216;53.806;11.598;2023-10-13T00:54:04;10.60;79.00
4406;DHT22;2216;53.806;11.598;2023-10-13T00:56:40;10.70;79.00
4406;DHT22;2216;53.806;11.598;2023-10-13T00:59:15;10.70;79.00
4406;DHT22;2216;53.806;11.598;2023-10-13T01:01:41;10.70;79.00
4406;DHT22;2216;53.806;11.598;2023-10-13T01:04:10;10.60;79.00
4406;DHT22;2216;53.806;11.598;2023-10-13T01:06:38;10.80;79.10
4406;DHT22;2216;53.806;11.598;2023-10-13T01:09:05;10.80;79.10
4406;DHT22;2216;53.806;11.598;2023-10-13T01:11:45;10.90;79.20
4406;DHT22;2216;53.806;11.598;2023-10-13T01:14:14;10.90;79.10
4406;DHT22;2216;53.806;11.598;2023-10-13T01:16:42;11.00;79.20
4406;DHT22;2216;53.806;11.598;2023-10-13T01:19:15;11.00;79.20
4406;DHT22;2216;53.806;11.598;2023-10-13T01:21:50;11.00;79.20
4406;DHT22;2216;53.806;11.598;2023-10-13T01:24:20;11.10;79.30
4406;DHT22;2216;53.806;11.598;2023-10-13T01:26:49;11.10;79.30
4406;DHT22;2216;53.806;11.598;2023-10-13T01:29:18;11.10;79.20
4406;DHT22;2216;53.806;11.598;2023-10-13T01:31:45;11.20;79.30
4406;DHT22;2216;53.806;11.598;2023-10-13T01:34:13;11.20;79.30
4406;DHT22;2216;53.806;11.598;2023-10-13T01:36:40;11.30;79.30
4406;DHT22;2216;53.806;11.598;2023-10-13T01:39:07;11.30;79.30
4406;DHT22;2216;53.806;11.598;2023-10-13T01:41:33;11.30;79.40
4406;DHT22;2216;53.806;11.598;2023-10-13T01:44:02;11.40;79.40
4406;DHT22;2216;53.806;11.598;2023-10-13T01:46:29;11.40;80.10
4406;DHT22;2216;53.806;11.598;2023-10-13T01:48:54;11.50;79.50
4406;DHT22;2216;53.806;11.598;2023-10-13T01:51:22;11.50;79.40
4406;DHT22;2216;53.806;11.598;2023-10-13T01:53:48;11.50;79.40
4406;DHT22;2216;53.806;11.598;2023-10-13T01:56:22;11.50;79.30
4406;DHT22;2216;53.806;11.598;2023-10-13T01:58:48;11.60;79.30
4406;DHT22;2216;53.806;11.598;2023-10-13T02:01:14;11.60;79.30
4406;DHT22;2216;53.806;11.598;2023-10-13T02:03:52;11.70;79.40
4406;DHT22;2216;53.806;11.598;2023-10-13T02:06:29;11.70;79.40
4406;DHT22;2216;53.806;11.598;2023-10-13T02:09:05;11.70;79.30
4406;DHT22;2216;53.806;11.598;2023-10-13T02:11:45;11.70;79.40
4406;DHT22;2216;53.806;11.598;2023-10-13T02:14:11;11.70;79.40
4406;DHT22;2216;53.806;11.598;2023-10-13T02:16:41;11.80;79.50
4406;DHT22;2216;53.806;11.598;2023-10-13T02:19:07;11.80;79.40
4406;DHT22;2216;53.806;11.598;2023-10-13T02:21:34;11.80;79.40
4406;DHT22;2216;53.806;11.598;2023-10-13T02:24:08;11.80;79.40
4406;DHT22;2216;53.806;11.598;2023-10-13T02:26:44;11.80;79.40
4406;DHT22;2216;53.806;11.598;2023-10-13T02:29:10;11.90;79.50
4406;DHT22;2216;53.806;11.598;2023-10-13T02:31:41;11.90;79.60
4406;DHT22;2216;53.806;11.598;2023-10-13T02:34:08;11.90;79.50
4406;DHT22;2216;53.806;11.598;2023-10-13T02:36:37;11.90;79.50
4406;DHT22;2216;53.806;11.598;2023-10-13T02:39:14;11.90;79.50
4406;DHT22;2216;53.806;11.598;2023-10-13T02:41:41;11.90;79.50
4406;DHT22;2216;53.806;11.598;2023-10-13T02:44:14;12.00;79.50
4406;DHT22;2216;53.806;11.598;2023-10-13T02:46:53;12.00;79.50
4406;DHT22;2216;53.806;11.598;2023-10-13T02:49:30;12.00;79.60
4406;DHT22;2216;53.806;11.598;2023-10-13T02:51:59;12.00;79.60
4406;DHT22;2216;53.806;11.598;2023-10-13T02:54:30;12.00;79.60
4406;DHT22;2216;53.806;11.598;2023-10-13T02:56:57;12.10;79.70
4406;DHT22;2216;53.806;11.598;2023-10-13T02:59:26;12.00;79.60
4406;DHT22;2216;53.806;11.598;2023-10-13T03:02:21;12.10;79.70
4406;DHT22;2216;53.806;11.598;2023-10-13T03:04:51;12.10;79.70
4406;DHT22;2216;53.806;11.598;2023-10-13T03:07:35;12.10;79.90
4406;DHT22;2216;53.806;11.598;2023-10-13T03:10:02;12.20;79.80
4406;DHT22;2216;53.806;11.598;2023-10-13T03:12:37;12.20;79.80
4406;DHT22;2216;53.806;11.598;2023-10-13T03:15:04;12.20;79.70
4406;DHT22;2216;53.806;11.598;2023-10-13T03:17:44;12.20;79.80
4406;DHT22;2216;53.806;11.598;2023-10-13T03:20:11;12.20;80.00
4406;DHT22;2216;53.806;11.598;2023-10-13T03:22:39;12.20;79.90
4406;DHT22;2216;53.806;11.598;2023-10-13T03:25:05;12.30;79.80
4406;DHT22;2216;53.806;11.598;2023-10-13T03:27:32;12.30;79.90
4406;DHT22;2216;53.806;11.598;2023-10-13T03:30:16;12.30;79.90
4406;DHT22;2216;53.806;11.598;2023-10-13T03:32:43;12.30;79.90
4406;DHT22;2216;53.806;11.598;2023-10-13T03:35:12;12.30;80.00
4406;DHT22;2216;53.806;11.598;2023-10-13T03:37:53;12.40;80.70
4406;DHT22;2216;53.806;11.598;2023-10-13T03:40:20;12.40;80.00
4406;DHT22;2216;53.806;11.598;2023-10-13T03:42:47;12.40;80.00
4406;DHT22;2216;53.806;11.598;2023-10-13T03:45:25;12.50;80.10
4406;DHT22;2216;53.806;11.598;2023-10-13T03:47:52;12.50;80.10
4406;DHT22;2216;53.806;11.598;2023-10-13T03:50:18;12.50;80.00
4406;DHT22;2216;53.806;11.598;2023-10-13T03:52:55;12.60;80.20
4406;DHT22;2216;53.806;11.598;2023-10-13T03:55:26;12.50;80.00
4406;DHT22;2216;53.806;11.598;2023-10-13T03:57:53;12.60;80.10
4406;DHT22;2216;53.806;11.598;2023-10-13T04:00:20;12.60;80.10
4406;DHT22;2216;53.806;11.598;2023-10-13T04:02:49;12.60;80.20
4406;DHT22;2216;53.806;11.598;2023-10-13T04:05:31;12.60;80.10
4406;DHT22;2216;53.806;11.598;2023-10-13T04:08:10;12.60;80.00
4406;DHT22;2216;53.806;11.598;2023-10-13T04:10:55;12.60;80.10
4406;DHT22;2216;53.806;11.598;2023-10-13T04:13:42;12.70;80.10
4406;DHT22;2216;53.806;11.598;2023-10-13T04:16:26;12.70;80.10
4406;DHT22;2216;53.806;11.598;2023-10-13T04:18:51;12.70;80.30
4406;DHT22;2216;53.806;11.598;2023-10-13T04:21:21;12.70;80.10
4406;DHT22;2216;53.806;11.598;2023-10-13T04:24:09;12.70;80.20
4406;DHT22;2216;53.806;11.598;2023-10-13T04:26:51;12.80;80.20
4406;DHT22;2216;53.806;11.598;2023-10-13T04:29:36;12.80;80.20
4406;DHT22;2216;53.806;11.598;2023-10-13T04:32:22;12.90;80.30
4406;DHT22;2216;53.806;11.598;2023-10-13T04:34:58;12.80;80.30
4406;DHT22;2216;53.806;11.598;2023-10-13T04:37:42;12.90;80.30
4406;DHT22;2216;53.806;11.598;2023-10-13T04:40:27;12.90;80.20
4406;DHT22;2216;53.806;11.598;2023-10-13T04:43:01;12.90;80.20
4406;DHT22;2216;53.806;11.598;2023-10-13T04:45:52;12.90;80.20
4406;DHT22;2216;53.806;11.598;2023-10-13T04:48:20;12.90;81.00
4406;DHT22;2216;53.806;11.598;2023-10-13T04:50:49;13.00;80.30
4406;DHT22;2216;53.806;11.598;2023-10-13T04:53:24;13.00;80.40
4406;DHT22;2216;53.806;11.598;2023-10-13T04:55:59;13.00;80.40
4406;DHT22;2216;53.806;11.598;2023-10-13T04:58:32;13.00;80.40
4406;DHT22;2216;53.806;11.598;2023-10-13T05:01:02;13.10;80.40
4406;DHT22;2216;53.806;11.598;2023-10-13T05:03:47;13.10;80.40
4406;DHT22;2216;53.806;11.598;2023-10-13T05:06:20;13.10;80.50
4406;DHT22;2216;53.806;11.598;2023-10-13T05:09:04;13.10;80.60
4406;DHT22;2216;53.806;11.598;2023-10-13T05:11:48;13.20;80.50
4406;DHT22;2216;53.806;11.598;2023-10-13T05:14:32;13.20;80.60
4406;DHT22;2216;53.806;11.598;2023-10-13T05:17:16;13.20;80.50
4406;DHT22;2216;53.806;11.598;2023-10-13T05:20:00;13.20;80.50
4406;DHT22;2216;53.806;11.598;2023-10-13T05:22:44;13.30;80.60
4406;DHT22;2216;53.806;11.598;2023-10-13T05:25:29;13.10;80.50
4406;DHT22;2216;53.806;11.598;2023-10-13T05:28:13;13.30;80.70
4406;DHT22;2216;53.806;11.598;2023-10-13T05:31:00;13.30;80.80
4406;DHT22;2216;53.806;11.598;2023-10-13T05:33:44;13.40;80.70
4406;DHT22;2216;53.806;11.598;2023-10-13T05:36:28;13.40;80.80
4406;DHT22;2216;53.806;11.598;2023-10-13T05:39:12;13.40;80.70
4406;DHT22;2216;53.806;11.598;2023-10-13T05:41:57;13.40;80.70
4406;DHT22;2216;53.806;11.598;2023-10-13T05:44:41;13.50;80.70
4406;DHT22;2216;53.806;11.598;2023-10-13T05:47:24;13.50;80.70
4406;DHT22;2216;53.806;11.598;2023-10-13T05:50:02;13.50;80.90
4406;DHT22;2216;53.806;11.598;2023-10-13T05:52:39;13.60;80.90
4406;DHT22;2216;53.806;11.598;2023-10-13T05:55:22;13.60;81.10
4406;DHT22;2216;53.806;11.598;2023-10-13T05:58:06;13.60;81.00
4406;DHT22;2216;53.806;11.598;2023-10-13T06:00:50;13.70;81.10
4406;DHT22;2216;53.806;11.598;2023-10-13T06:03:35;13.70;81.10
4406;DHT22;2216;53.806;11.598;2023-10-13T06:06:19;13.70;81.30
4406;DHT22;2216;53.806;11.598;2023-10-13T06:09:03;13.70;81.20
4406;DHT22;2216;53.806;11.598;2023-10-13T06:11:47;13.80;81.40
4406;DHT22;2216;53.806;11.598;2023-10-13T06:14:32;13.90;81.40
4406;DHT22;2216;53.806;11.598;2023-10-13T06:17:16;13.90;81.40
4406;DHT22;2216;53.806;11.598;2023-10-13T06:20:00;13.90;81.40
4406;DHT22;2216;53.806;11.598;2023-10-13T06:22:47;13.90;81.30
4406;DHT22;2216;53.806;11.598;2023-10-13T06:25:32;14.00;81.50
4406;DHT22;2216;53.806;11.598;2023-10-13T06:28:16;14.00;81.50
4406;DHT22;2216;53.806;11.598;2023-10-13T06:31:01;14.10;81.40
4406;DHT22;2216;53.806;11.598;2023-10-13T06:33:34;14.10;81.30
4406;DHT22;2216;53.806;11.598;2023-10-13T06:36:03;14.20;81.40
4406;DHT22;2216;53.806;11.598;2023-10-13T06:38:37;14.20;81.50
4406;DHT22;2216;53.806;11.598;2023-10-13T06:41:04;14.30;81.60
4406;DHT22;2216;53.806;11.598;2023-10-13T06:43:36;14.30;81.60
4406;DHT22;2216;53.806;11.598;2023-10-13T06:46:06;14.30;81.60
4406;DHT22;2216;53.806;11.598;2023-10-13T06:48:33;14.40;81.60
4406;DHT22;2216;53.806;11.598;2023-10-13T06:51:01;14.50;81.80
4406;DHT22;2216;53.806;11.598;2023-10-13T06:53:30;14.50;81.70
4406;DHT22;2216;53.806;11.598;2023-10-13T06:56:05;14.60;81.60
4406;DHT22;2216;53.806;11.598;2023-10-13T06:58:31;14.60;81.70
4406;DHT22;2216;53.806;11.598;2023-10-13T07:00:58;14.60;81.60
4406;DHT22;2216;53.806;11.598;2023-10-13T07:03:24;14.70;81.90
4406;DHT22;2216;53.806;11.598;2023-10-13T07:05:51;14.70;81.90
4406;DHT22;2216;53.806;11.598;2023-10-13T07:08:17;14.80;82.10
4406;DHT22;2216;53.806;11.598;2023-10-13T07:10:51;14.80;82.00
4406;DHT22;2216;53.806;11.598;2023-10-13T07:13:28;14.90;82.10
4406;DHT22;2216;53.806;11.598;2023-10-13T07:15:55;14.90;81.90
4406;DHT22;2216;53.806;11.598;2023-10-13T07:18:27;14.80;82.40
4406;DHT22;2216;53.806;11.598;2023-10-13T07:21:00;15.00;82.10
4406;DHT22;2216;53.806;11.598;2023-10-13T07:23:37;15.10;82.40
4406;DHT22;2216;53.806;11.598;2023-10-13T07:26:05;15.10;82.50
4406;DHT22;2216;53.806;11.598;2023-10-13T07:28:34;15.10;82.90
4406;DHT22;2216;53.806;11.598;2023-10-13T07:31:12;15.20;82.80
4406;DHT22;2216;53.806;11.598;2023-10-13T07:33:40;15.30;82.70
4406;DHT22;2216;53.806;11.598;2023-10-13T07:36:08;15.30;83.40
4406;DHT22;2216;53.806;11.598;2023-10-13T07:38:53;15.30;82.70
4406;DHT22;2216;53.806;11.598;2023-10-13T07:41:36;15.40;82.60
4406;DHT22;2216;53.806;11.598;2023-10-13T07:44:02;15.40;82.50
4406;DHT22;2216;53.806;11.598;2023-10-13T07:46:30;15.50;82.50
4406;DHT22;2216;53.806;11.598;2023-10-13T07:49:00;15.50;82.60
4406;DHT22;2216;53.806;11.598;2023-10-13T07:51:36;15.60;82.90
4406;DHT22;2216;53.806;11.598;2023-10-13T07:54:18;15.60;82.70
4406;DHT22;2216;53.806;11.598;2023-10-13T07:56:47;15.70;82.80
4406;DHT22;2216;53.806;11.598;2023-10-13T07:59:13;15.70;83.00
4406;DHT22;2216;53.806;11.598;2023-10-13T08:01:42;15.70;82.60
4406;DHT22;2216;53.806;11.598;2023-10-13T08:04:08;15.70;82.70
4406;DHT22;2216;53.806;11.598;2023-10-13T08:06:38;15.80;82.50
4406;DHT22;2216;53.806;11.598;2023-10-13T08:09:06;15.80;82.80
4406;DHT22;2216;53.806;11.598;2023-10-13T08:11:33;15.80;82.70
4406;DHT22;2216;53.806;11.598;2023-10-13T08:14:04;15.90;82.60
4406;DHT22;2216;53.806;11.598;2023-10-13T08:16:41;15.90;82.70
4406;DHT22;2216;53.806;11.598;2023-10-13T08:19:23;15.90;82.90
4406;DHT22;2216;53.806;11.598;2023-10-13T08:21:56;15.90;82.60
4406;DHT22;2216;53.806;11.598;2023-10-13T08:24:27;15.90;82.60
4406;DHT22;2216;53.806;11.598;2023-10-13T08:27:03;16.00;82.90
4406;DHT22;2216;53.806;11.598;2023-10-13T08:29:59;16.00;83.00
4406;DHT22;2216;53.806;11.598;2023-10-13T08:32:44;16.00;82.80
4406;DHT22;2216;53.806;11.598;2023-10-13T08:35:20;16.10;83.10
4406;DHT22;2216;53.806;11.598;2023-10-13T08:37:55;16.10;83.20
4406;DHT22;2216;53.806;11.598;2023-10-13T08:40:24;16.10;83.20
4406;DHT22;2216;53.806;11.598;2023-10-13T08:43:11;16.10;83.50
4406;DHT22;2216;53.806;11.598;2023-10-13T08:45:42;16.20;83.50
4406;DHT22;2216;53.806;11.598;2023-10-13T08:48:10;16.20;83.20
4406;DHT22;2216;53.806;11.598;2023-10-13T08:50:44;16.20;83.50
4406;DHT22;2216;53.806;11.598;2023-10-13T08:53:19;16.20;83.30
4406;DHT22;2216;53.806;11.598;2023-10-13T08:56:05;16.30;83.30
4406;DHT22;2216;53.806;11.598;2023-10-13T08:58:51;16.30;83.70
4406;DHT22;2216;53.806;11.598;2023-10-13T09:01:24;16.30;83.60
4406;DHT22;2216;53.806;11.598;2023-10-13T09:04:00;16.40;83.40
4406;DHT22;2216;53.806;11.598;2023-10-13T09:07:12;16.40;83.40
4406;DHT22;2216;53.806;11.598;2023-10-13T09:09:49;16.40;83.50
4406;DHT22;2216;53.806;11.598;2023-10-13T09:12:19;16.50;83.40
4406;DHT22;2216;53.806;11.598;2023-10-13T09:14:54;16.50;83.40
4406;DHT22;2216;53.806;11.598;2023-10-13T09:17:25;16.50;83.50
4406;DHT22;2216;53.806;11.598;2023-10-13T09:20:05;16.50;83.80
4406;DHT22;2216;53.806;11.598;2023-10-13T09:22:50;16.50;83.30
4406;DHT22;2216;53.806;11.598;2023-10-13T09:25:37;16.60;83.70
4406;DHT22;2216;53.806;11.598;2023-10-13T09:28:10;16.60;83.30
4406;DHT22;2216;53.806;11.598;2023-10-13T09:30:54;16.60;84.00
4406;DHT22;2216;53.806;11.598;2023-10-13T09:33:24;16.60;83.60
4406;DHT22;2216;53.806;11.598;2023-10-13T09:36:06;16.60;84.00
4406;DHT22;2216;53.806;11.598;2023-10-13T09:38:35;16.60;83.50
4406;DHT22;2216;53.806;11.598;2023-10-13T09:41:21;16.60;83.70
4406;DHT22;2216;53.806;11.598;2023-10-13T09:43:52;16.60;83.90
4406;DHT22;2216;53.806;11.598;2023-10-13T09:46:21;16.70;83.60
4406;DHT22;2216;53.806;11.598;2023-10-13T09:48:58;16.70;83.90
4406;DHT22;2216;53.806;11.598;2023-10-13T09:51:31;16.70;83.90
4406;DHT22;2216;53.806;11.598;2023-10-13T09:54:06;16.70;84.00
4406;DHT22;2216;53.806;11.598;2023-10-13T09:56:43;16.70;83.60
4406;DHT22;2216;53.806;11.598;2023-10-13T09:59:27;16.70;83.80
4406;DHT22;2216;53.806;11.598;2023-10-13T10:02:01;16.70;83.70
4406;DHT22;2216;53.806;11.598;2023-10-13T10:04:34;16.70;83.90
4406;DHT22;2216;53.806;11.598;2023-10-13T10:07:10;16.70;84.00
4406;DHT22;2216;53.806;11.598;2023-10-13T10:09:36;16.70;83.70
4406;DHT22;2216;53.806;11.598;2023-10-13T10:15:07;16.70;83.70
4406;DHT22;2216;53.806;11.598;2023-10-13T10:17:43;16.70;83.60
4406;DHT22;2216;53.806;11.598;2023-10-13T10:20:09;16.80;83.90
4406;DHT22;2216;53.806;11.598;2023-10-13T10:22:55;16.70;83.90
4406;DHT22;2216;53.806;11.598;2023-10-13T10:25:35;16.70;83.80
4406;DHT22;2216;53.806;11.598;2023-10-13T10:28:05;16.70;84.20
4406;DHT22;2216;53.806;11.598;2023-10-13T10:30:37;16.80;84.40
4406;DHT22;2216;53.806;11.598;2023-10-13T10:33:07;16.80;84.30
4406;DHT22;2216;53.806;11.598;2023-10-13T10:35:57;16.90;84.30
4406;DHT22;2216;53.806;11.598;2023-10-13T10:38:25;16.90;84.30
4406;DHT22;2216;53.806;11.598;2023-10-13T10:41:06;16.90;85.40
4406;DHT22;2216;53.806;11.598;2023-10-13T10:43:38;17.00;85.30
4406;DHT22;2216;53.806;11.598;2023-10-13T10:46:15;17.00;84.40
4406;DHT22;2216;53.806;11.598;2023-10-13T10:48:47;17.10;84.10
4406;DHT22;2216;53.806;11.598;2023-10-13T10:51:14;17.10;83.90
4406;DHT22;2216;53.806;11.598;2023-10-13T10:53:41;17.10;83.80
4406;DHT22;2216;53.806;11.598;2023-10-13T10:56:11;17.20;83.70
4406;DHT22;2216;53.806;11.598;2023-10-13T10:58:58;17.20;83.80
4406;DHT22;2216;53.806;11.598;2023-10-13T11:01:26;17.30;83.90
4406;DHT22;2216;53.806;11.598;2023-10-13T11:04:14;17.30;84.10
4406;DHT22;2216;53.806;11.598;2023-10-13T11:06:50;17.40;84.10
4406;DHT22;2216;53.806;11.598;2023-10-13T11:09:33;17.40;84.20
4406;DHT22;2216;53.806;11.598;2023-10-13T11:14:32;17.50;84.10
4406;DHT22;2216;53.806;11.598;2023-10-13T11:16:59;17.40;83.90
4406;DHT22;2216;53.806;11.598;2023-10-13T11:19:40;17.60;84.10
4406;DHT22;2216;53.806;11.598;2023-10-13T11:22:11;17.60;84.00
4406;DHT22;2216;53.806;11.598;2023-10-13T11:24:41;17.60;84.10
4406;DHT22;2216;53.806;11.598;2023-10-13T11:27:16;17.60;84.20
4406;DHT22;2216;53.806;11.598;2023-10-13T11:29:46;17.70;84.30
4406;DHT22;2216;53.806;11.598;2023-10-13T11:32:17;17.80;84.50
4406;DHT22;2216;53.806;11.598;2023-10-13T11:34:45;17.90;84.50
4406;DHT22;2216;53.806;11.598;2023-10-13T11:37:17;17.90;84.40
4406;DHT22;2216;53.806;11.598;2023-10-13T11:40:03;18.00;84.40
4406;DHT22;2216;53.806;11.598;2023-10-13T11:42:37;18.00;84.30
4406;DHT22;2216;53.806;11.598;2023-10-13T11:45:09;18.10;84.30
4406;DHT22;2216;53.806;11.598;2023-10-13T11:47:53;18.20;84.70
4406;DHT22;2216;53.806;11.598;2023-10-13T11:50:25;18.20;84.50
4406;DHT22;2216;53.806;11.598;2023-10-13T11:52:59;18.30;84.60
4406;DHT22;2216;53.806;11.598;2023-10-13T11:55:25;18.30;84.70
4406;DHT22;2216;53.806;11.598;2023-10-13T11:57:51;18.40;84.80
4406;DHT22;2216;53.806;11.598;2023-10-13T12:00:17;18.50;84.60
4406;DHT22;2216;53.806;11.598;2023-10-13T12:03:01;18.50;84.80
4406;DHT22;2216;53.806;11.598;2023-10-13T12:05:45;18.60;85.10
4406;DHT22;2216;53.806;11.598;2023-10-13T12:08:29;18.70;84.90
4406;DHT22;2216;53.806;11.598;2023-10-13T12:10:58;18.80;85.00
4406;DHT22;2216;53.806;11.598;2023-10-13T12:13:46;18.90;84.80
4406;DHT22;2216;53.806;11.598;2023-10-13T12:16:12;19.00;84.60
4406;DHT22;2216;53.806;11.598;2023-10-13T12:18:38;19.10;84.90
4406;DHT22;2216;53.806;11.598;2023-10-13T12:21:09;19.10;84.70
4406;DHT22;2216;53.806;11.598;2023-10-13T12:23:38;19.10;84.40
4406;DHT22;2216;53.806;11.598;2023-10-13T12:26:04;19.20;84.30
4406;DHT22;2216;53.806;11.598;2023-10-13T12:28:44;19.20;84.30
4406;DHT22;2216;53.806;11.598;2023-10-13T12:31:17;19.30;84.20
4406;DHT22;2216;53.806;11.598;2023-10-13T12:33:43;19.30;84.10
4406;DHT22;2216;53.806;11.598;2023-10-13T12:36:12;19.40;84.20
4406;DHT22;2216;53.806;11.598;2023-10-13T12:38:38;19.40;84.30
4406;DHT22;2216;53.806;11.598;2023-10-13T12:41:14;19.40;84.10
4406;DHT22;2216;53.806;11.598;2023-10-13T12:43:58;19.50;84.20
4406;DHT22;2216;53.806;11.598;2023-10-13T12:46:43;19.50;84.20
4406;DHT22;2216;53.806;11.598;2023-10-13T12:49:27;19.60;84.30
4406;DHT22;2216;53.806;11.598;2023-10-13T12:52:14;19.70;84.20
4406;DHT22;2216;53.806;11.598;2023-10-13T12:54:51;19.60;84.20
4406;DHT22;2216;53.806;11.598;2023-10-13T12:57:26;19.70;84.10
4406;DHT22;2216;53.806;11.598;2023-10-13T12:59:52;19.70;84.00
4406;DHT22;2216;53.806;11.598;2023-10-13T13:02:25;19.60;83.80
4406;DHT22;2216;53.806;11.598;2023-10-13T13:04:52;19.70;83.90
4406;DHT22;2216;53.806;11.598;2023-10-13T13:07:37;19.70;83.80
4406;DHT22;2216;53.806;11.598;2023-10-13T13:10:13;19.70;83.80
4406;DHT22;2216;53.806;11.598;2023-10-13T13:12:40;19.80;83.90
4406;DHT22;2216;53.806;11.598;2023-10-13T13:15:07;19.80;83.90
4406;DHT22;2216;53.806;11.598;2023-10-13T13:17:38;19.80;84.10
4406;DHT22;2216;53.806;11.598;2023-10-13T13:20:08;19.80;84.00
4406;DHT22;2216;53.806;11.598;2023-10-13T13:22:51;19.90;84.20
4406;DHT22;2216;53.806;11.598;2023-10-13T13:25:19;19.90;84.10
4406;DHT22;2216;53.806;11.598;2023-10-13T13:27:50;19.90;84.00
4406;DHT22;2216;53.806;11.598;2023-10-13T13:30:16;20.00;84.10
4406;DHT22;2216;53.806;11.598;2023-10-13T13:32:45;20.00;84.00
4406;DHT22;2216;53.806;11.598;2023-10-13T13:35:11;20.10;84.10
4406;DHT22;2216;53.806;11.598;2023-10-13T13:37:39;20.10;84.00
4406;DHT22;2216;53.806;11.598;2023-10-13T13:40:08;20.20;83.90
4406;DHT22;2216;53.806;11.598;2023-10-13T13:42:41;20.20;83.80
4406;DHT22;2216;53.806;11.598;2023-10-13T13:45:15;20.30;83.80
4406;DHT22;2216;53.806;11.598;2023-10-13T13:47:52;20.30;83.80
4406;DHT22;2216;53.806;11.598;2023-10-13T13:50:24;20.30;83.70
4406;DHT22;2216;53.806;11.598;2023-10-13T13:52:55;20.40;83.70
4406;DHT22;2216;53.806;11.598;2023-10-13T13:55:22;20.40;83.70
4406;DHT22;2216;53.806;11.598;2023-10-13T13:57:49;20.40;83.60
4406;DHT22;2216;53.806;11.598;2023-10-13T14:00:17;20.50;83.70
4406;DHT22;2216;53.806;11.598;2023-10-13T14:03:06;20.50;83.70
4406;DHT22;2216;53.806;11.598;2023-10-13T14:05:44;20.50;84.10
4406;DHT22;2216;53.806;11.598;2023-10-13T14:08:10;20.60;83.50
4406;DHT22;2216;53.806;11.598;2023-10-13T14:10:40;20.60;83.40
4406;DHT22;2216;53.806;11.598;2023-10-13T14:13:25;20.60;83.40
4406;DHT22;2216;53.806;11.598;2023-10-13T14:16:11;20.70;83.30
4406;DHT22;2216;53.806;11.598;2023-10-13T14:18:45;20.70;83.10
4406;DHT22;2216;53.806;11.598;2023-10-13T14:21:15;20.70;83.30
4406;DHT22;2216;53.806;11.598;2023-10-13T14:23:46;20.70;83.30
4406;DHT22;2216;53.806;11.598;2023-10-13T14:26:14;20.80;83.30
4406;DHT22;2216;53.806;11.598;2023-10-13T14:28:50;20.80;83.40
4406;DHT22;2216;53.806;11.598;2023-10-13T14:31:31;20.90;83.40
4406;DHT22;2216;53.806;11.598;2023-10-13T14:33:58;20.90;83.10
4406;DHT22;2216;53.806;11.598;2023-10-13T14:36:24;20.90;83.00
4406;DHT22;2216;53.806;11.598;2023-10-13T14:38:57;20.90;82.90
4406;DHT22;2216;53.806;11.598;2023-10-13T14:41:23;21.00;82.80
4406;DHT22;2216;53.806;11.598;2023-10-13T14:43:48;21.00;82.80
4406;DHT22;2216;53.806;11.598;2023-10-13T14:46:20;21.00;82.80
4406;DHT22;2216;53.806;11.598;2023-10-13T14:48:51;21.00;82.70
4406;DHT22;2216;53.806;11.598;2023-10-13T14:51:18;20.90;82.60
4406;DHT22;2216;53.806;11.598;2023-10-13T14:53:45;21.00;82.60
4406;DHT22;2216;53.806;11.598;2023-10-13T14:56:15;20.90;82.50
4406;DHT22;2216;53.806;11.598;2023-10-13T14:58:42;20.90;82.40
4406;DHT22;2216;53.806;11.598;2023-10-13T15:01:20;21.00;82.30
4406;DHT22;2216;53.806;11.598;2023-10-13T15:03:51;20.90;82.30
4406;DHT22;2216;53.806;11.598;2023-10-13T15:06:25;20.90;82.20
4406;DHT22;2216;53.806;11.598;2023-10-13T15:08:56;20.80;82.20
4406;DHT22;2216;53.806;11.598;2023-10-13T15:11:23;20.80;82.20
4406;DHT22;2216;53.806;11.598;2023-10-13T15:13:53;20.80;82.10
4406;DHT22;2216;53.806;11.598;2023-10-13T15:16:25;20.80;82.00
4406;DHT22;2216;53.806;11.598;2023-10-13T15:18:52;20.80;82.10
4406;DHT22;2216;53.806;11.598;2023-10-13T15:21:19;20.70;82.00
4406;DHT22;2216;53.806;11.598;2023-10-13T15:23:47;20.70;82.10
4406;DHT22;2216;53.806;11.598;2023-10-13T15:26:12;20.70;82.10
4406;DHT22;2216;53.806;11.598;2023-10-13T15:28:40;20.70;82.10
4406;DHT22;2216;53.806;11.598;2023-10-13T15:31:19;20.70;82.20
4406;DHT22;2216;53.806;11.598;2023-10-13T15:33:56;20.70;82.10
4406;DHT22;2216;53.806;11.598;2023-10-13T15:36:23;20.70;82.20
4406;DHT22;2216;53.806;11.598;2023-10-13T15:38:53;20.70;82.20
4406;DHT22;2216;53.806;11.598;2023-10-13T15:41:23;20.60;82.10
4406;DHT22;2216;53.806;11.598;2023-10-13T15:43:49;20.60;82.10
4406;DHT22;2216;53.806;11.598;2023-10-13T15:46:16;20.60;82.00
4406;DHT22;2216;53.806;11.598;2023-10-13T15:48:42;20.60;82.00
4406;DHT22;2216;53.806;11.598;2023-10-13T15:51:11;20.60;81.90
4406;DHT22;2216;53.806;11.598;2023-10-13T15:53:40;20.60;82.00
4406;DHT22;2216;53.806;11.598;2023-10-13T15:56:06;20.60;82.00
4406;DHT22;2216;53.806;11.598;2023-10-13T15:59:00;20.60;82.00
4406;DHT22;2216;53.806;11.598;2023-10-13T16:01:32;20.60;82.00
4406;DHT22;2216;53.806;11.598;2023-10-13T16:03:59;20.60;81.90
4406;DHT22;2216;53.806;11.598;2023-10-13T16:06:25;20.50;81.80
4406;DHT22;2216;53.806;11.598;2023-10-13T16:08:52;20.60;82.00
4406;DHT22;2216;53.806;11.598;2023-10-13T16:11:18;20.50;81.80
4406;DHT22;2216;53.806;11.598;2023-10-13T16:13:44;20.60;82.00
4406;DHT22;2216;53.806;11.598;2023-10-13T16:16:18;20.60;82.00
4406;DHT22;2216;53.806;11.598;2023-10-13T16:18:48;20.60;81.90
4406;DHT22;2216;53.806;11.598;2023-10-13T16:21:15;20.50;81.70
4406;DHT22;2216;53.806;11.598;2023-10-13T16:23:41;20.60;81.80
4406;DHT22;2216;53.806;11.598;2023-10-13T16:26:10;20.60;81.90
4406;DHT22;2216;53.806;11.598;2023-10-13T16:28:36;20.60;81.80
4406;DHT22;2216;53.806;11.598;2023-10-13T16:31:04;20.50;81.70
4406;DHT22;2216;53.806;11.598;2023-10-13T16:33:31;20.60;81.80
4406;DHT22;2216;53.806;11.598;2023-10-13T16:36:03;20.60;81.80